createdAt,value
2023-05-09T00:02:28.642Z,101420.13
2023-05-09T00:04:57.326Z,101406.63
2023-05-09T00:07:25.392Z,101414.09
2023-05-09T00:09:53.340Z,101421.06
2023-05-09T00:12:21.880Z,101416.34
2023-05-09T00:14:51.754Z,101413.75
2023-05-09T00:17:22.675Z,101416.63
2023-05-09T00:19:51.141Z,101416.94
2023-05-09T00:22:21.392Z,101403.00
2023-05-09T00:24:49.970Z,101401.19
2023-05-09T00:27:18.068Z,101399.19
2023-05-09T00:29:47.644Z,101405.69
2023-05-09T00:32:15.813Z,101406.88
2023-05-09T00:34:45.222Z,101397.22
2023-05-09T00:37:13.699Z,101385.94
2023-05-09T00:39:41.540Z,101385.84
2023-05-09T00:42:09.558Z,101383.34
2023-05-09T00:44:37.707Z,101379.88
2023-05-09T00:47:05.977Z,101380.06
2023-05-09T00:49:34.125Z,101378.59
2023-05-09T00:52:04.952Z,101379.69
2023-05-09T00:54:33.298Z,101376.91
2023-05-09T00:57:01.912Z,101382.25
2023-05-09T00:59:29.732Z,101377.00
2023-05-09T01:01:57.696Z,101381.97
2023-05-09T01:04:26.202Z,101373.13
2023-05-09T01:07:04.208Z,101371.78
2023-05-09T01:09:39.709Z,101358.94
2023-05-09T01:12:14.955Z,101361.19
2023-05-09T01:14:51.643Z,101351.16
2023-05-09T01:17:33.657Z,101343.75
2023-05-09T01:20:11.946Z,101350.41
2023-05-09T01:22:46.694Z,101343.88
2023-05-09T01:25:45.764Z,101336.41
2023-05-09T01:28:35.903Z,101328.25
2023-05-09T01:31:07.524Z,101328.06
2023-05-09T01:33:39.684Z,101333.03
2023-05-09T01:36:13.393Z,101328.66
2023-05-09T01:38:45.271Z,101329.34
2023-05-09T01:41:16.715Z,101328.72
2023-05-09T01:43:47.351Z,101329.66
2023-05-09T01:46:19.835Z,101322.31
2023-05-09T01:48:49.392Z,101311.06
2023-05-09T01:51:18.303Z,101320.69
2023-05-09T01:53:49.545Z,101320.44
2023-05-09T01:56:19.147Z,101319.69
2023-05-09T01:58:50.090Z,101311.50
2023-05-09T02:01:20.895Z,101311.75
2023-05-09T02:03:53.825Z,101315.22
2023-05-09T02:06:24.391Z,101314.63
2023-05-09T02:08:52.693Z,101305.19
2023-05-09T02:11:21.403Z,101313.91
2023-05-09T02:13:51.368Z,101306.91
2023-05-09T02:16:21.194Z,101309.34
2023-05-09T02:18:49.249Z,101309.72
2023-05-09T02:21:17.555Z,101300.19
2023-05-09T02:23:46.196Z,101300.09
2023-05-09T02:26:16.195Z,101298.41
2023-05-09T02:28:45.362Z,101299.78
2023-05-09T02:31:15.990Z,101304.25
2023-05-09T02:33:47.994Z,101303.75
2023-05-09T02:36:17.805Z,101300.09
2023-05-09T02:38:46.705Z,101296.97
2023-05-09T02:41:15.503Z,101307.44
2023-05-09T02:43:43.855Z,101300.66
2023-05-09T02:46:12.073Z,101305.13
2023-05-09T02:48:39.991Z,101300.22
2023-05-09T02:51:09.367Z,101302.25
2023-05-09T02:53:37.617Z,101298.34
2023-05-09T02:56:06.059Z,101294.47
2023-05-09T02:58:34.426Z,101286.19
2023-05-09T03:01:02.511Z,101286.16
2023-05-09T03:03:34.147Z,101296.50
2023-05-09T03:06:04.859Z,101290.09
2023-05-09T03:08:34.370Z,101295.31
2023-05-09T03:11:02.745Z,101291.59
2023-05-09T03:13:31.797Z,101288.25
2023-05-09T03:16:00.201Z,101285.25
2023-05-09T03:18:28.217Z,101283.31
2023-05-09T03:20:56.687Z,101277.00
2023-05-09T03:23:24.953Z,101278.56
2023-05-09T03:25:55.097Z,101277.84
2023-05-09T03:28:23.557Z,101273.66
2023-05-09T03:30:51.952Z,101272.88
2023-05-09T03:33:22.376Z,101273.47
2023-05-09T03:35:50.495Z,101265.25
2023-05-09T03:38:18.504Z,101267.91
2023-05-09T03:40:46.506Z,101266.94
2023-05-09T03:43:16.608Z,101276.00
2023-05-09T03:45:45.057Z,101269.19
2023-05-09T03:48:16.336Z,101267.72
2023-05-09T03:50:49.940Z,101264.94
2023-05-09T03:53:18.036Z,101265.38
2023-05-09T03:55:48.578Z,101262.97
2023-05-09T03:58:20.664Z,101260.75
2023-05-09T04:00:49.195Z,101249.59
2023-05-09T04:03:23.183Z,101250.63
2023-05-09T04:05:53.415Z,101246.00
2023-05-09T04:08:30.798Z,101254.19
2023-05-09T04:10:59.818Z,101243.06
2023-05-09T04:13:29.993Z,101240.63
2023-05-09T04:15:59.848Z,101234.09
2023-05-09T04:18:30.887Z,101235.41
2023-05-09T04:20:58.942Z,101244.88
2023-05-09T04:23:27.344Z,101239.81
2023-05-09T04:25:58.594Z,101244.00
2023-05-09T04:28:27.202Z,101245.34
2023-05-09T04:30:58.261Z,101249.13
2023-05-09T04:33:26.404Z,101243.50
2023-05-09T04:35:59.808Z,101245.03
2023-05-09T04:38:27.969Z,101242.19
2023-05-09T04:40:56.339Z,101241.44
2023-05-09T04:43:26.463Z,101238.19
2023-05-09T04:45:54.619Z,101237.38
2023-05-09T04:48:26.564Z,101237.91
2023-05-09T04:50:54.574Z,101234.06
2023-05-09T04:53:26.069Z,101237.50
2023-05-09T04:55:55.236Z,101237.72
2023-05-09T04:58:25.409Z,101234.69
2023-05-09T05:00:54.264Z,101226.59
2023-05-09T05:03:23.770Z,101229.16
2023-05-09T05:05:52.161Z,101226.34
2023-05-09T05:08:20.122Z,101229.97
2023-05-09T05:10:49.654Z,101225.66
2023-05-09T05:13:18.565Z,101221.66
2023-05-09T05:15:50.744Z,101227.63
2023-05-09T05:18:20.451Z,101219.31
2023-05-09T05:20:50.058Z,101216.00
2023-05-09T05:23:18.348Z,101217.16
2023-05-09T05:25:46.722Z,101219.78
2023-05-09T05:28:15.920Z,101209.88
2023-05-09T05:30:43.931Z,101213.19
2023-05-09T05:33:14.274Z,101214.28
2023-05-09T05:35:42.924Z,101219.19
2023-05-09T05:38:13.011Z,101213.72
2023-05-09T05:40:41.445Z,101210.63
2023-05-09T05:43:10.011Z,101211.94
2023-05-09T05:45:39.869Z,101203.16
2023-05-09T05:48:11.052Z,101200.06
2023-05-09T05:50:39.053Z,101206.56
2023-05-09T05:53:07.623Z,101193.31
2023-05-09T05:55:37.829Z,101194.41
2023-05-09T05:58:07.576Z,101193.69
2023-05-09T06:00:36.671Z,101190.94
2023-05-09T06:03:07.500Z,101188.31
2023-05-09T06:05:56.980Z,101188.66
2023-05-09T06:08:25.149Z,101180.81
2023-05-09T06:10:54.846Z,101174.19
2023-05-09T06:13:23.028Z,101169.59
2023-05-09T06:16:07.722Z,101175.97
2023-05-09T06:18:40.093Z,101170.72
2023-05-09T06:21:08.601Z,101165.78
2023-05-09T06:23:42.487Z,101168.47
2023-05-09T06:26:17.496Z,101163.53
2023-05-09T06:28:45.882Z,101167.50
2023-05-09T06:31:17.605Z,101162.81
2023-05-09T06:33:46.486Z,101161.25
2023-05-09T06:36:14.696Z,101157.28
2023-05-09T06:38:42.877Z,101157.94
2023-05-09T06:41:11.150Z,101151.19
2023-05-09T06:43:41.245Z,101141.31
2023-05-09T06:46:09.441Z,101148.06
2023-05-09T06:48:37.620Z,101151.56
2023-05-09T06:51:06.164Z,101143.06
2023-05-09T06:53:34.582Z,101136.03
2023-05-09T06:56:03.078Z,101134.09
2023-05-09T06:58:32.325Z,101128.41
2023-05-09T07:01:02.954Z,101121.13
2023-05-09T07:03:31.831Z,101125.56
2023-05-09T07:06:00.192Z,101123.25
2023-05-09T07:08:28.451Z,101110.22
2023-05-09T07:11:03.484Z,101111.88
2023-05-09T07:13:31.768Z,101105.19
2023-05-09T07:16:02.350Z,101092.78
2023-05-09T07:18:31.649Z,101096.81
2023-05-09T07:21:00.401Z,101089.81
2023-05-09T07:23:32.879Z,101081.59
2023-05-09T07:26:01.806Z,101080.63
2023-05-09T07:28:31.235Z,101081.47
2023-05-09T07:31:00.071Z,101080.88
2023-05-09T07:33:29.969Z,101079.69
2023-05-09T07:36:00.410Z,101083.34
2023-05-09T07:38:29.593Z,101082.00
2023-05-09T07:40:58.074Z,101071.97
2023-05-09T07:43:26.358Z,101073.69
2023-05-09T07:45:54.798Z,101067.13
2023-05-09T07:48:23.080Z,101062.34
2023-05-09T07:50:52.539Z,101059.44
2023-05-09T07:53:21.457Z,101051.75
2023-05-09T07:55:50.286Z,101049.06
2023-05-09T07:58:18.705Z,101051.13
2023-05-09T08:00:46.885Z,101044.03
2023-05-09T08:03:18.867Z,101038.91
2023-05-09T08:05:47.387Z,101042.59
2023-05-09T08:08:17.160Z,101031.94
2023-05-09T08:10:45.897Z,101028.59
2023-05-09T08:13:14.537Z,101034.53
2023-05-09T08:15:43.113Z,101024.16
2023-05-09T08:18:11.786Z,101028.28
2023-05-09T08:20:40.879Z,101024.38
2023-05-09T08:23:09.741Z,101023.97
2023-05-09T08:25:39.172Z,101013.91
2023-05-09T08:28:07.644Z,101016.41
2023-05-09T08:30:35.632Z,100999.09
2023-05-09T08:33:03.924Z,100996.50
2023-05-09T08:35:32.078Z,100986.88
2023-05-09T08:38:00.172Z,100975.97
2023-05-09T08:40:28.345Z,100972.56
2023-05-09T08:42:57.758Z,100968.09
2023-05-09T08:45:30.930Z,100968.13
2023-05-09T08:48:01.011Z,100968.25
2023-05-09T08:50:29.908Z,100962.53
2023-05-09T08:52:58.503Z,100961.81
2023-05-09T08:55:27.740Z,100966.94
2023-05-09T08:57:57.303Z,100963.28
2023-05-09T09:00:27.395Z,100965.41
2023-05-09T09:02:56.294Z,100964.03
2023-05-09T09:05:40.230Z,100945.28
2023-05-09T09:08:10.885Z,100942.56
2023-05-09T09:10:42.158Z,100940.31
2023-05-09T09:13:13.957Z,100936.13
2023-05-09T09:15:46.156Z,100932.69
2023-05-09T09:18:19.852Z,100926.75
2023-05-09T09:20:52.393Z,100936.63
2023-05-09T09:23:21.933Z,100938.63
2023-05-09T09:25:50.107Z,100930.84
2023-05-09T09:28:19.849Z,100932.69
2023-05-09T09:30:49.456Z,100932.28
2023-05-09T09:33:22.280Z,100925.88
2023-05-09T09:35:51.597Z,100918.47
2023-05-09T09:38:20.429Z,100911.47
2023-05-09T09:40:55.699Z,100911.47
2023-05-09T09:43:30.310Z,100900.84
2023-05-09T09:45:58.930Z,100903.16
2023-05-09T09:48:27.462Z,100902.22
2023-05-09T09:50:57.064Z,100905.63
2023-05-09T09:53:30.235Z,100895.22
2023-05-09T09:55:58.501Z,100893.22
2023-05-09T09:58:26.660Z,100882.59
2023-05-09T10:01:10.193Z,100880.78
2023-05-09T10:03:39.315Z,100875.91
2023-05-09T10:06:11.495Z,100869.81
2023-05-09T10:08:39.494Z,100873.78
2023-05-09T10:11:07.677Z,100870.28
2023-05-09T10:13:37.380Z,100859.97
2023-05-09T10:16:07.088Z,100852.41
2023-05-09T10:18:36.832Z,100848.91
2023-05-09T10:21:08.377Z,100853.94
2023-05-09T10:23:39.505Z,100842.31
2023-05-09T10:26:17.785Z,100845.66
2023-05-09T10:28:49.083Z,100832.84
2023-05-09T10:31:26.844Z,100829.38
2023-05-09T10:33:57.236Z,100824.78
2023-05-09T10:36:25.252Z,100824.03
2023-05-09T10:38:55.327Z,100817.59
2023-05-09T10:41:24.268Z,100817.63
2023-05-09T10:43:53.088Z,100812.78
2023-05-09T10:46:21.750Z,100806.31
2023-05-09T10:48:50.925Z,100807.31
2023-05-09T10:51:20.523Z,100794.97
2023-05-09T10:53:49.797Z,100801.81
2023-05-09T10:56:25.446Z,100801.00
2023-05-09T10:58:54.515Z,100783.84
2023-05-09T11:01:35.422Z,100786.69
2023-05-09T11:04:10.708Z,100788.38
2023-05-09T11:06:47.602Z,100765.31
2023-05-09T11:09:36.069Z,100768.22
2023-05-09T11:12:14.234Z,100756.44
2023-05-09T11:14:44.660Z,100750.56
2023-05-09T11:17:14.846Z,100760.50
2023-05-09T11:20:05.705Z,100745.56
2023-05-09T11:22:42.809Z,100742.22
2023-05-09T11:25:13.797Z,100736.63
2023-05-09T11:27:44.858Z,100739.09
2023-05-09T11:30:15.721Z,100724.84
2023-05-09T11:32:47.676Z,100727.38
2023-05-09T11:35:17.863Z,100724.91
2023-05-09T11:37:49.318Z,100728.72
2023-05-09T11:40:21.017Z,100730.34
2023-05-09T11:42:54.684Z,100722.66
2023-05-09T11:45:25.591Z,100711.06
2023-05-09T11:47:54.089Z,100706.03
2023-05-09T11:50:22.494Z,100707.28
2023-05-09T11:52:52.600Z,100706.03
2023-05-09T11:55:23.238Z,100705.75
2023-05-09T11:57:53.162Z,100707.66
2023-05-09T12:00:23.188Z,100711.97
2023-05-09T12:02:52.704Z,100692.94
2023-05-09T12:05:22.784Z,100694.03
2023-05-09T12:07:52.782Z,100696.66
2023-05-09T12:10:23.217Z,100694.31
2023-05-09T12:12:53.024Z,100686.94
2023-05-09T12:15:21.511Z,100687.22
2023-05-09T12:18:03.071Z,100684.06
2023-05-09T12:20:41.684Z,100668.56
2023-05-09T12:23:12.709Z,100678.00
2023-05-09T12:25:50.890Z,100672.94
2023-05-09T12:28:19.422Z,100672.97
2023-05-09T12:30:47.810Z,100663.97
2023-05-09T12:33:16.192Z,100666.97
2023-05-09T12:35:47.370Z,100668.84
2023-05-09T12:38:21.983Z,100670.44
2023-05-09T12:40:50.077Z,100660.31
2023-05-09T12:43:18.816Z,100649.00
2023-05-09T12:45:46.820Z,100650.28
2023-05-09T12:48:15.201Z,100650.06
2023-05-09T12:50:48.587Z,100650.69
2023-05-09T12:53:26.528Z,100645.44
2023-05-09T12:56:02.736Z,100648.41
2023-05-09T12:58:31.991Z,100644.56
2023-05-09T13:01:00.999Z,100639.44
2023-05-09T13:03:37.624Z,100634.69
2023-05-09T13:06:07.391Z,100635.50
2023-05-09T13:08:37.485Z,100624.91
2023-05-09T13:11:15.520Z,100621.72
2023-05-09T13:13:44.907Z,100625.16
2023-05-09T13:16:15.774Z,100631.97
2023-05-09T13:18:45.469Z,100624.59
2023-05-09T13:21:13.713Z,100612.78
2023-05-09T13:23:44.520Z,100617.47
2023-05-09T13:26:12.942Z,100607.94
2023-05-09T13:28:41.179Z,100620.66
2023-05-09T13:31:09.388Z,100605.13
2023-05-09T13:33:38.900Z,100613.56
2023-05-09T13:36:07.392Z,100610.03
2023-05-09T13:38:38.904Z,100607.88
2023-05-09T13:41:08.641Z,100592.50
2023-05-09T13:43:37.516Z,100595.38
2023-05-09T13:46:05.505Z,100588.88
2023-05-09T13:48:33.791Z,100585.13
2023-05-09T13:51:01.643Z,100580.84
2023-05-09T13:53:29.681Z,100569.41
2023-05-09T13:55:57.672Z,100559.66
2023-05-09T13:58:26.925Z,100555.06
2023-05-09T14:00:54.810Z,100552.19
2023-05-09T14:03:22.710Z,100555.47
2023-05-09T14:05:50.910Z,100552.09
2023-05-09T14:08:19.053Z,100547.75
2023-05-09T14:10:48.296Z,100552.19
2023-05-09T14:13:16.494Z,100545.94
2023-05-09T14:15:46.002Z,100532.91
2023-05-09T14:18:17.137Z,100539.91
2023-05-09T14:20:47.453Z,100531.13
2023-05-09T14:23:15.491Z,100530.56
2023-05-09T14:25:43.566Z,100524.53
2023-05-09T14:28:11.944Z,100520.53
2023-05-09T14:30:39.775Z,100515.19
2023-05-09T14:33:09.078Z,100506.91
2023-05-09T14:35:39.695Z,100496.16
2023-05-09T14:38:09.107Z,100494.41
2023-05-09T14:40:37.624Z,100491.44
2023-05-09T14:43:05.845Z,100489.31
2023-05-09T14:45:34.918Z,100481.94
2023-05-09T14:48:03.758Z,100489.41
2023-05-09T14:50:33.472Z,100484.50
2023-05-09T14:53:04.025Z,100479.13
2023-05-09T14:55:32.488Z,100467.72
2023-05-09T14:58:00.409Z,100461.84
2023-05-09T15:00:29.233Z,100462.75
2023-05-09T15:02:57.759Z,100460.44
2023-05-09T15:05:26.312Z,100459.75
2023-05-09T15:07:55.690Z,100463.38
2023-05-09T15:10:23.954Z,100474.41
2023-05-09T15:12:51.850Z,100465.38
2023-05-09T15:15:23.226Z,100451.06
2023-05-09T15:17:51.647Z,100462.25
2023-05-09T15:20:20.054Z,100460.22
2023-05-09T15:22:48.894Z,100454.69
2023-05-09T15:25:18.334Z,100448.16
2023-05-09T15:27:46.318Z,100447.31
2023-05-09T15:30:15.427Z,100437.66
2023-05-09T15:32:43.797Z,100440.59
2023-05-09T15:35:11.948Z,100434.31
2023-05-09T15:37:40.040Z,100440.00
2023-05-09T15:40:09.199Z,100436.34
2023-05-09T15:42:39.740Z,100439.13
2023-05-09T15:45:08.881Z,100425.84
2023-05-09T15:47:36.872Z,100424.22
2023-05-09T15:50:05.109Z,100428.38
2023-05-09T15:52:33.260Z,100418.44
2023-05-09T15:55:01.362Z,100433.50
2023-05-09T15:57:29.421Z,100423.72
2023-05-09T15:59:58.624Z,100413.91
2023-05-09T16:02:28.514Z,100410.06
2023-05-09T16:04:56.770Z,100407.88
2023-05-09T16:07:24.667Z,100408.56
2023-05-09T16:09:52.637Z,100405.28
2023-05-09T16:12:20.580Z,100405.81
2023-05-09T16:14:48.531Z,100398.44
2023-05-09T16:17:17.795Z,100396.22
2023-05-09T16:19:45.783Z,100400.22
2023-05-09T16:22:14.005Z,100391.16
2023-05-09T16:24:41.866Z,100390.75
2023-05-09T16:27:09.804Z,100387.03
2023-05-09T16:29:37.646Z,100374.66
2023-05-09T16:32:05.983Z,100376.69
2023-05-09T16:34:35.523Z,100374.38
2023-05-09T16:37:03.784Z,100373.81
2023-05-09T16:39:32.352Z,100363.56
2023-05-09T16:42:00.363Z,100357.25
2023-05-09T16:44:28.418Z,100362.78
2023-05-09T16:46:56.326Z,100360.34
2023-05-09T16:49:24.287Z,100358.56
2023-05-09T16:51:53.675Z,100364.69
2023-05-09T16:54:23.059Z,100350.22
2023-05-09T16:56:50.972Z,100354.31
2023-05-09T16:59:20.210Z,100352.41
2023-05-09T17:01:50.049Z,100351.72
2023-05-09T17:04:18.043Z,100350.97
2023-05-09T17:06:45.903Z,100344.44
2023-05-09T17:09:15.191Z,100340.47
2023-05-09T17:11:43.193Z,100338.00
2023-05-09T17:14:11.316Z,100333.13
2023-05-09T17:16:39.271Z,100333.63
2023-05-09T17:19:07.175Z,100343.16
2023-05-09T17:21:35.648Z,100340.13
2023-05-09T17:24:03.755Z,100334.03
2023-05-09T17:26:33.286Z,100329.28
2023-05-09T17:29:01.706Z,100328.69
2023-05-09T17:31:29.722Z,100328.44
2023-05-09T17:33:58.235Z,100333.03
2023-05-09T17:36:26.783Z,100328.75
2023-05-09T17:38:54.944Z,100326.72
2023-05-09T17:41:23.011Z,100321.16
2023-05-09T17:43:56.365Z,100327.16
2023-05-09T17:46:24.960Z,100327.56
2023-05-09T17:48:53.252Z,100319.28
2023-05-09T17:51:21.884Z,100322.09
2023-05-09T17:53:49.996Z,100315.88
2023-05-09T17:56:18.081Z,100315.28
2023-05-09T17:58:51.358Z,100317.59
2023-05-09T18:01:21.268Z,100322.78
2023-05-09T18:03:49.476Z,100314.91
2023-05-09T18:06:18.252Z,100322.91
2023-05-09T18:08:46.260Z,100305.66
2023-05-09T18:11:15.182Z,100309.56
2023-05-09T18:13:44.193Z,100309.56
2023-05-09T18:16:17.205Z,100309.22
2023-05-09T18:18:47.140Z,100313.81
2023-05-09T18:21:15.685Z,100309.44
2023-05-09T18:23:43.675Z,100319.25
2023-05-09T18:26:11.552Z,100312.88
2023-05-09T18:28:40.586Z,100315.16
2023-05-09T18:31:11.830Z,100323.72
2023-05-09T18:33:40.099Z,100316.38
2023-05-09T18:36:11.316Z,100314.44
2023-05-09T18:38:40.916Z,100312.03
2023-05-09T18:41:10.726Z,100309.03
2023-05-09T18:43:46.296Z,100314.69
2023-05-09T18:46:20.898Z,100305.53
2023-05-09T18:48:55.900Z,100312.00
2023-05-09T18:51:26.678Z,100304.94
2023-05-09T18:53:56.966Z,100297.91
2023-05-09T18:56:25.434Z,100314.88
2023-05-09T18:58:53.412Z,100304.22
2023-05-09T19:01:21.423Z,100302.78
2023-05-09T19:03:54.549Z,100305.19
2023-05-09T19:06:24.361Z,100308.88
2023-05-09T19:08:54.215Z,100293.28
2023-05-09T19:11:22.293Z,100299.19
2023-05-09T19:13:50.282Z,100305.03
2023-05-09T19:16:20.461Z,100302.13
2023-05-09T19:18:48.765Z,100301.63
2023-05-09T19:21:18.826Z,100304.38
2023-05-09T19:23:47.847Z,100307.28
2023-05-09T19:26:17.661Z,100307.41
2023-05-09T19:28:46.801Z,100301.38
2023-05-09T19:31:15.896Z,100306.34
2023-05-09T19:33:45.344Z,100299.13
2023-05-09T19:36:13.663Z,100297.97
2023-05-09T19:38:41.635Z,100299.31
2023-05-09T19:41:10.869Z,100308.22
2023-05-09T19:43:40.156Z,100304.88
2023-05-09T19:46:08.400Z,100305.34
2023-05-09T19:48:36.500Z,100305.94
2023-05-09T19:51:05.182Z,100301.75
2023-05-09T19:53:33.112Z,100301.16
2023-05-09T19:56:01.139Z,100307.31
2023-05-09T19:58:29.070Z,100302.16
2023-05-09T20:01:01.959Z,100304.03
2023-05-09T20:03:30.166Z,100300.44
2023-05-09T20:05:58.341Z,100300.56
2023-05-09T20:08:26.579Z,100305.78
2023-05-09T20:10:55.931Z,100308.78
2023-05-09T20:13:24.436Z,100299.91
2023-05-09T20:15:52.382Z,100296.63
2023-05-09T20:18:22.067Z,100299.72
2023-05-09T20:20:50.073Z,100293.81
2023-05-09T20:23:18.089Z,100289.81
2023-05-09T20:25:45.965Z,100292.75
2023-05-09T20:28:19.642Z,100285.97
2023-05-09T20:30:47.685Z,100280.88
2023-05-09T20:33:15.971Z,100280.31
2023-05-09T20:35:45.489Z,100279.22
2023-05-09T20:38:13.393Z,100277.63
2023-05-09T20:40:41.445Z,100273.72
2023-05-09T20:43:09.512Z,100273.44
2023-05-09T20:45:38.449Z,100268.00
2023-05-09T20:48:08.012Z,100269.78
2023-05-09T20:50:35.989Z,100266.44
2023-05-09T20:53:05.293Z,100263.91
2023-05-09T20:55:33.382Z,100262.13
2023-05-09T20:58:02.515Z,100264.31
2023-05-09T21:00:30.825Z,100252.81
2023-05-09T21:02:59.019Z,100250.34
2023-05-09T21:05:27.327Z,100252.53
2023-05-09T21:07:56.718Z,100247.50
2023-05-09T21:10:26.036Z,100251.47
2023-05-09T21:12:54.291Z,100244.34
2023-05-09T21:15:22.426Z,100235.72
2023-05-09T21:17:50.457Z,100239.03
2023-05-09T21:20:18.935Z,100238.50
2023-05-09T21:22:47.205Z,100235.16
2023-05-09T21:25:15.540Z,100240.44
2023-05-09T21:27:45.259Z,100233.09
2023-05-09T21:30:13.470Z,100233.88
2023-05-09T21:32:41.727Z,100227.72
2023-05-09T21:35:12.742Z,100218.91
2023-05-09T21:37:40.929Z,100219.56
2023-05-09T21:40:10.122Z,100210.56
2023-05-09T21:42:40.164Z,100210.63
2023-05-09T21:45:10.560Z,100203.63
2023-05-09T21:47:39.721Z,100203.47
2023-05-09T21:50:08.562Z,100205.31
2023-05-09T21:52:36.757Z,100192.25
2023-05-09T21:55:05.113Z,100205.50
2023-05-09T21:57:33.066Z,100201.94
2023-05-09T22:00:01.957Z,100196.69
2023-05-09T22:02:31.756Z,100197.25
2023-05-09T22:05:00.354Z,100196.66
2023-05-09T22:07:28.455Z,100189.53
2023-05-09T22:09:56.609Z,100185.69
2023-05-09T22:12:24.659Z,100183.69
2023-05-09T22:14:56.649Z,100181.72
2023-05-09T22:17:25.104Z,100182.47
2023-05-09T22:19:54.462Z,100177.66
2023-05-09T22:22:23.098Z,100177.44
2023-05-09T22:24:51.167Z,100176.25
2023-05-09T22:27:19.364Z,100180.72
2023-05-09T22:29:47.567Z,100179.72
2023-05-09T22:32:15.736Z,100174.78
2023-05-09T22:34:43.674Z,100175.16
2023-05-09T22:37:13.067Z,100169.06
2023-05-09T22:39:41.436Z,100173.13
2023-05-09T22:42:11.330Z,100166.25
2023-05-09T22:44:39.481Z,100164.97
2023-05-09T22:47:08.744Z,100159.03
2023-05-09T22:49:36.725Z,100163.19
2023-05-09T22:52:04.900Z,100165.63
2023-05-09T22:54:34.196Z,100166.59
2023-05-09T22:57:02.164Z,100155.59
2023-05-09T22:59:30.245Z,100164.56
2023-05-09T23:01:58.426Z,100158.09
2023-05-09T23:04:26.327Z,100168.13
2023-05-09T23:06:54.156Z,100164.22
2023-05-09T23:09:22.313Z,100171.75
2023-05-09T23:11:51.714Z,100168.81
2023-05-09T23:14:19.713Z,100165.84
2023-05-09T23:16:48.847Z,100168.03
2023-05-09T23:19:16.726Z,100171.00
2023-05-09T23:21:44.511Z,100175.72
2023-05-09T23:24:12.392Z,100185.56
2023-05-09T23:26:40.375Z,100175.81
2023-05-09T23:29:09.727Z,100182.28
2023-05-09T23:31:37.612Z,100175.88
2023-05-09T23:34:05.689Z,100186.22
2023-05-09T23:36:33.689Z,100173.25
2023-05-09T23:39:01.464Z,100171.66
2023-05-09T23:41:29.432Z,100158.47
2023-05-09T23:43:58.082Z,100162.91
2023-05-09T23:46:27.436Z,100154.34
2023-05-09T23:48:55.258Z,100152.16
2023-05-09T23:51:23.618Z,100147.00
2023-05-09T23:53:51.467Z,100149.81
2023-05-09T23:56:19.340Z,100150.00
2023-05-09T23:58:47.306Z,100149.91
